< Typhoon 196202 1962 Season Typhoon 196204 >
Typhoon 196203 (HOPE)
General InformationTrack Information on Google Maps || Disaster Info.ResourceGoogle EarthGE AnimationAtom FeedGeoJSON
Detalied Best Track (Time Zone = UTC)
Year Month Day Hour Lat. Long. Pressure (hPa) Wind (kt) Class Image Chart
1962 5 14 18 7.4 132.3 1006 0 2 -- Chart
1962 5 15 00 7.7 131.4 1008 0 2 -- Chart
1962 5 15 06 8.0 130.6 1006 0 2 -- Chart
1962 5 15 12 8.3 129.8 1006 0 2 -- Chart
1962 5 15 18 8.8 129.0 1004 0 2 -- Chart
1962 5 16 00 9.2 128.2 1004 0 2 -- Chart
1962 5 16 06 9.6 127.4 1004 0 9 -- Chart
1962 5 16 12 10.0 126.5 1002 0 9 -- Chart
1962 5 16 18 10.5 125.7 1000 0 9 -- Chart
1962 5 17 00 11.0 125.0 990 0 9 -- Chart
1962 5 17 06 11.5 124.0 990 0 9 -- Chart
1962 5 17 12 11.8 123.2 995 0 9 -- Chart
1962 5 17 18 12.5 122.7 995 0 9 -- Chart
1962 5 18 00 13.6 122.6 995 0 9 -- Chart
1962 5 18 06 14.5 122.4 995 0 9 -- Chart
1962 5 18 12 15.4 122.3 995 0 9 -- Chart
1962 5 18 18 16.4 122.3 995 0 9 -- Chart
1962 5 19 00 17.2 122.4 995 0 9 -- Chart
1962 5 19 06 17.6 122.7 995 0 9 -- Chart
1962 5 19 12 18.2 123.3 990 0 9 -- Chart
1962 5 19 18 18.8 124.2 985 0 9 -- Chart
1962 5 20 00 19.5 125.6 985 0 9 -- Chart
1962 5 20 06 20.5 126.5 985 0 9 -- Chart
1962 5 20 12 21.2 127.9 985 0 9 -- Chart
1962 5 20 18 22.5 129.0 980 0 9 -- Chart
1962 5 21 00 23.4 130.4 980 0 9 -- Chart
1962 5 21 06 24.2 131.3 985 0 9 -- Chart
1962 5 21 12 25.5 132.0 990 0 9 -- Chart
1962 5 21 18 26.0 133.0 995 0 9 -- Chart
1962 5 22 00 27.4 133.4 1000 0 9 -- Chart
1962 5 22 06 28.3 133.7 1006 0 9 -- Chart
1962 5 22 12 29.0 134.0 1006 0 9 -- Chart
1962 5 22 18 30.0 134.4 1006 0 6 -- Chart
1962 5 23 00 31.3 134.9 1008 0 6 -- Chart
1962 5 23 06 32.5 136.8 1006 0 6 -- Chart
1962 5 23 12 33.6 138.6 1004 0 6 -- Chart
1962 5 23 18 34.8 140.8 1000 0 6 -- Chart
1962 5 24 00 35.7 142.7 996 0 6 -- Chart
1962 5 24 06 36.7 144.2 996 0 6 -- Chart
1962 5 24 12 37.9 145.9 996 0 6 -- Chart
1962 5 24 18 39.2 147.3 996 0 6 -- Chart
1962 5 25 00 40.4 148.6 996 0 6 -- Chart
1962 5 25 06 41.5 149.9 996 0 6 -- Chart
1962 5 25 12 43.0 151.1 1000 0 6 -- Chart
1962 5 25 18 44.5 151.5 1000 0 6 -- Chart
1962 5 26 00 46.0 152.1 1002 0 6 -- Chart
1962 5 26 06 47.8 154.3 1002 0 6 -- Chart
1962 5 26 12 48.6 157.5 1000 0 6 -- Chart
1962 5 26 18 48.9 160.6 1000 0 6 -- Chart
1962 5 27 00 49.0 164.0 1008 0 6 -- Chart
1962 5 27 06 49.0 167.0 1010 0 6 -- Chart
1962 5 27 12 49.0 170.0 1012 0 6 -- Chart
1962 5 27 18 49.0 173.0 1016 0 6 -- Chart
1962 5 28 00 49.0 176.0 1018 0 6 -- Chart
Japan Meteorological Agency Best Track Data | Correction Date : 1989-06-01
< Typhoon 196202 1962 Season Typhoon 196204 >

Help